Time;durP1;ratioP1;P1;durP2;ratioP2;P2;SDS_P1;SDS_P2;PMS_P1;PMS_P2;Temp;Humidity;BMP_temperature;BMP_pressure;BME280_temperature;BME280_humidity;BME280_pressure;Samples;Min_cycle;Max_cycle;Signal;HPM_P1;HPM_P2
2021/12/21 00:00:46;;;;;;;14.83;7.63;;;-1.60;99.90;;;;;;4953801;28;20466;-51
2021/12/21 00:03:12;;;;;;;14.57;7.97;;;-1.60;99.90;;;;;;4954040;28;20205;-51
2021/12/21 00:05:37;;;;;;;17.03;8.50;;;-1.60;99.90;;;;;;4954044;28;20425;-51
2021/12/21 00:08:07;;;;;;;16.17;8.47;;;-1.60;99.90;;;;;;4953953;28;20186;-51
2021/12/21 00:10:34;;;;;;;19.00;9.07;;;-1.60;99.90;;;;;;4953984;28;20652;-50
2021/12/21 00:13:04;;;;;;;15.43;8.50;;;-1.60;99.90;;;;;;4953800;28;20433;-51
2021/12/21 00:16:01;;;;;;;20.20;8.30;;;-1.60;99.90;;;;;;4953648;28;20441;-51
2021/12/21 00:18:35;;;;;;;21.80;8.47;;;-1.60;99.90;;;;;;4953788;28;21202;-50
2021/12/21 00:21:09;;;;;;;15.63;7.90;;;-1.60;99.90;;;;;;4953525;29;20830;-51
2021/12/21 00:23:38;;;;;;;21.30;8.90;;;-1.60;99.90;;;;;;4953979;28;20433;-51
2021/12/21 00:26:06;;;;;;;13.70;7.57;;;-1.60;99.90;;;;;;4953835;28;20579;-50
2021/12/21 00:28:38;;;;;;;15.10;7.90;;;-1.60;99.90;;;;;;4953569;28;20434;-51
2021/12/21 00:31:04;;;;;;;13.10;7.53;;;-1.70;99.90;;;;;;4953090;28;20429;-51
2021/12/21 00:33:29;;;;;;;15.77;7.93;;;-1.70;99.90;;;;;;4953126;28;20528;-51
2021/12/21 00:35:55;;;;;;;16.07;8.60;;;-1.70;99.90;;;;;;4952217;28;20197;-51
2021/12/21 00:38:20;;;;;;;25.53;8.80;;;-1.70;99.90;;;;;;4952385;29;20206;-51
2021/12/21 00:40:46;;;;;;;14.60;8.60;;;-1.70;99.90;;;;;;4952902;28;20353;-51
2021/12/21 00:43:12;;;;;;;24.33;8.20;;;-1.70;99.90;;;;;;4952967;28;20205;-51
2021/12/21 00:45:37;;;;;;;18.63;8.10;;;-1.70;99.90;;;;;;4952628;28;20225;-58
2021/12/21 00:48:03;;;;;;;18.63;8.70;;;-1.70;99.90;;;;;;4952821;28;20198;-51
2021/12/21 00:50:29;;;;;;;18.83;8.20;;;-1.70;99.90;;;;;;4952552;28;20261;-51
2021/12/21 00:52:55;;;;;;;17.33;8.63;;;-1.70;99.90;;;;;;4953106;29;20201;-51
2021/12/21 00:55:22;;;;;;;13.73;7.07;;;-1.80;99.90;;;;;;4952861;29;20444;-51
2021/12/21 00:57:48;;;;;;;17.23;9.53;;;-1.70;99.90;;;;;;4952611;29;20425;-51
2021/12/21 01:00:16;;;;;;;16.50;8.30;;;-1.80;99.90;;;;;;4952156;29;20464;-51
2021/12/21 01:02:42;;;;;;;19.30;7.90;;;-1.80;99.90;;;;;;4952036;28;20478;-51
2021/12/21 01:05:21;;;;;;;19.33;8.63;;;-1.80;99.90;;;;;;4952554;29;20964;-51
2021/12/21 01:07:50;;;;;;;13.73;8.27;;;-1.80;99.90;;;;;;4950642;29;20536;-51
2021/12/21 01:18:19;;;;;;;20.13;8.20;;;-1.90;99.90;;;;;;4952817;29;20434;-50
2021/12/21 01:20:51;;;;;;;18.87;7.67;;;-2.00;99.90;;;;;;4952239;29;20872;-50
2021/12/21 01:25:54;;;;;;;15.13;8.50;;;-2.00;99.90;;;;;;4952453;29;20429;-51
2021/12/21 01:28:30;;;;;;;17.93;8.77;;;-2.10;99.90;;;;;;4952914;29;20435;-51
2021/12/21 01:31:14;;;;;;;15.40;8.40;;;-2.00;99.90;;;;;;4952183;29;20432;-51
2021/12/21 01:36:15;;;;;;;16.23;9.03;;;-2.00;99.90;;;;;;4952242;29;20954;-51
2021/12/21 01:38:53;;;;;;;20.93;9.43;;;-2.10;99.90;;;;;;4953051;28;20204;-50
2021/12/21 01:41:33;;;;;;;19.13;9.30;;;-2.00;99.90;;;;;;4960097;28;20469;-50
2021/12/21 01:49:38;;;;;;;17.53;9.83;;;-2.10;99.90;;;;;;4955903;29;20452;-50
2021/12/21 01:52:13;;;;;;;18.23;8.90;;;-2.10;99.90;;;;;;4955860;29;20570;-50
2021/12/21 01:54:39;;;;;;;22.40;10.80;;;-2.20;99.90;;;;;;4955712;29;20452;-51
2021/12/21 01:57:05;;;;;;;15.60;9.00;;;-2.20;99.90;;;;;;4940957;29;20424;-50
2021/12/21 01:59:33;;;;;;;14.90;8.93;;;-2.10;99.90;;;;;;4955993;29;20209;-50
2021/12/21 02:01:59;;;;;;;17.37;8.97;;;-2.10;99.90;;;;;;4955786;29;21412;-50
2021/12/21 02:04:24;;;;;;;13.27;9.00;;;-2.10;1.00;;;;;;4955910;29;20443;-51
2021/12/21 02:06:50;;;;;;;17.30;9.60;;;-2.10;1.00;;;;;;4955112;29;20198;-51
2021/12/21 02:09:19;;;;;;;14.30;9.00;;;-2.10;1.00;;;;;;4955811;29;20615;-50
2021/12/21 02:11:48;;;;;;;16.03;8.80;;;-2.10;1.00;;;;;;4955432;29;20212;-50
2021/12/21 02:14:15;;;;;;;14.47;9.97;;;-2.10;1.00;;;;;;4956185;28;20445;-50
2021/12/21 02:16:57;;;;;;;22.97;9.13;;;-2.10;1.00;;;;;;4955689;28;20472;-51
2021/12/21 02:19:29;;;;;;;15.60;9.00;;;-2.10;1.00;;;;;;4953869;29;20429;-51
2021/12/21 02:22:06;;;;;;;18.03;9.30;;;-2.10;1.00;;;;;;4955240;29;20899;-51
2021/12/21 02:24:40;;;;;;;14.63;8.97;;;-2.10;1.00;;;;;;4955374;29;20842;-50
2021/12/21 02:29:49;;;;;;;21.20;9.33;;;-2.10;1.00;;;;;;4955458;29;20448;-51
2021/12/21 02:32:15;;;;;;;16.97;10.33;;;-2.20;1.00;;;;;;4955529;29;20430;-51
2021/12/21 02:34:44;;;;;;;17.07;8.97;;;-2.20;1.00;;;;;;4955923;29;20209;-51
2021/12/21 02:37:10;;;;;;;19.60;10.20;;;-2.10;1.00;;;;;;4955371;29;20189;-51
2021/12/21 02:39:37;;;;;;;17.97;10.17;;;-2.20;1.00;;;;;;4955432;29;20608;-50
2021/12/21 02:42:03;;;;;;;18.07;10.80;;;-2.10;1.00;;;;;;4955452;29;20440;-51
2021/12/21 02:44:28;;;;;;;13.33;9.00;;;-2.10;1.00;;;;;;4955405;29;20436;-51
2021/12/21 02:46:54;;;;;;;16.97;9.53;;;-2.10;1.00;;;;;;4954852;29;20444;-50
2021/12/21 02:49:20;;;;;;;20.97;9.97;;;-2.20;1.00;;;;;;4955234;29;20265;-50
2021/12/21 02:51:47;;;;;;;19.47;10.43;;;-2.20;1.00;;;;;;4954983;29;20229;-51
2021/12/21 02:54:14;;;;;;;13.93;9.20;;;-2.20;1.00;;;;;;4955038;29;20341;-51
2021/12/21 02:56:40;;;;;;;17.87;9.70;;;-2.20;1.00;;;;;;4955021;29;20433;-51
2021/12/21 02:59:05;;;;;;;14.67;8.87;;;-2.20;1.00;;;;;;4954917;28;20441;-51
2021/12/21 03:01:31;;;;;;;16.50;9.23;;;-2.30;1.00;;;;;;4954062;28;20476;-51
2021/12/21 03:03:58;;;;;;;17.07;9.57;;;-2.30;1.00;;;;;;4955078;29;20201;-49
2021/12/21 03:09:36;;;;;;;11.43;8.00;;;-2.30;1.00;;;;;;4954731;29;20437;-50
2021/12/21 03:12:08;;;;;;;17.43;10.17;;;-2.30;1.00;;;;;;4954548;29;21028;-51
2021/12/21 03:14:34;;;;;;;17.60;10.63;;;-2.30;1.00;;;;;;4955117;29;20448;-51
2021/12/21 03:17:00;;;;;;;24.87;10.20;;;-2.30;1.00;;;;;;4954692;29;20438;-50
2021/12/21 03:19:25;;;;;;;16.60;11.03;;;-2.30;1.00;;;;;;4954859;29;20433;-51
2021/12/21 03:21:53;;;;;;;19.83;10.33;;;-2.30;1.00;;;;;;4954791;29;20948;-50
2021/12/21 03:24:19;;;;;;;17.73;10.63;;;-2.30;1.00;;;;;;4954455;29;20216;-51
2021/12/21 03:26:45;;;;;;;22.43;10.43;;;-2.20;1.00;;;;;;4954308;29;20936;-51
2021/12/21 03:29:10;;;;;;;17.37;9.60;;;-2.20;1.00;;;;;;4937457;29;20584;-51
2021/12/21 03:31:36;;;;;;;22.37;11.23;;;-2.20;1.00;;;;;;4954069;29;20445;-51
2021/12/21 03:34:02;;;;;;;16.30;10.00;;;-2.20;1.00;;;;;;4937430;29;20197;-51
2021/12/21 03:36:28;;;;;;;22.60;11.30;;;-2.20;1.00;;;;;;4953326;29;20289;-50
2021/12/21 03:39:00;;;;;;;15.37;10.23;;;-2.20;1.00;;;;;;4954414;29;20982;-50
2021/12/21 03:41:26;;;;;;;20.13;10.90;;;-2.20;1.00;;;;;;4954269;29;20233;-50
2021/12/21 03:43:52;;;;;;;15.37;9.20;;;-2.20;1.00;;;;;;4954061;29;20512;-50
2021/12/21 03:46:17;;;;;;;17.40;11.00;;;-2.30;1.00;;;;;;4954383;29;20520;-50
2021/12/21 03:48:47;;;;;;;18.97;10.40;;;-2.20;1.00;;;;;;4937152;29;20201;-51
2021/12/21 03:51:14;;;;;;;18.40;10.70;;;-2.30;1.00;;;;;;4953754;29;20225;-51
2021/12/21 03:53:40;;;;;;;16.30;9.90;;;-2.30;1.00;;;;;;4953895;29;20783;-51
2021/12/21 03:58:37;;;;;;;18.50;10.13;;;-2.30;1.00;;;;;;4954450;29;20198;-51
2021/12/21 04:01:04;;;;;;;13.87;9.70;;;-2.40;1.00;;;;;;4953714;29;20497;-51
2021/12/21 04:03:29;;;;;;;23.50;9.77;;;-2.40;1.00;;;;;;4953888;29;20182;-51
2021/12/21 04:05:55;;;;;;;13.43;9.70;;;-2.40;1.00;;;;;;4953399;29;20433;-57
2021/12/21 04:08:20;;;;;;;16.70;10.53;;;-2.40;1.00;;;;;;4953991;28;20252;-51
2021/12/21 04:10:46;;;;;;;16.60;9.97;;;-2.50;1.00;;;;;;4953911;28;20288;-50
2021/12/21 04:13:11;;;;;;;21.17;9.97;;;-2.50;1.00;;;;;;4953885;28;20225;-51
2021/12/21 04:15:43;;;;;;;14.67;9.43;;;-2.60;1.00;;;;;;4952964;29;20213;-51
2021/12/21 04:18:10;;;;;;;19.10;10.10;;;-2.60;1.00;;;;;;4954077;29;20189;-51
2021/12/21 04:20:36;;;;;;;18.93;9.80;;;-2.60;1.00;;;;;;4953669;29;20572;-50
2021/12/21 04:23:02;;;;;;;17.67;10.67;;;-2.60;1.00;;;;;;4953891;29;20516;-50
2021/12/21 04:25:28;;;;;;;16.37;9.77;;;-2.60;99.90;;;;;;4953019;29;20198;-51
2021/12/21 04:27:54;;;;;;;21.07;10.43;;;-2.60;1.00;;;;;;4953194;29;20444;-52
2021/12/21 04:30:20;;;;;;;20.00;11.40;;;-2.60;1.00;;;;;;4953123;29;20204;-51
2021/12/21 04:32:45;;;;;;;18.70;10.10;;;-2.60;1.00;;;;;;4953407;29;20532;-50
2021/12/21 04:35:11;;;;;;;16.97;10.37;;;-2.60;1.00;;;;;;4935506;29;20202;-51
2021/12/21 04:37:43;;;;;;;18.67;10.50;;;-2.60;1.00;;;;;;4953536;29;20625;-51
2021/12/21 04:40:14;;;;;;;20.33;10.40;;;-2.50;1.00;;;;;;4952991;29;20469;-51
2021/12/21 04:42:40;;;;;;;16.93;11.30;;;-2.50;1.00;;;;;;4953580;29;20496;-52
2021/12/21 04:45:06;;;;;;;17.20;10.70;;;-2.50;1.00;;;;;;4952855;29;20433;-51
2021/12/21 04:47:31;;;;;;;14.80;10.43;;;-2.50;1.00;;;;;;4953166;29;20193;-51
2021/12/21 04:49:57;;;;;;;21.90;11.33;;;-2.50;1.00;;;;;;4952901;29;20217;-51
2021/12/21 04:52:22;;;;;;;20.20;10.70;;;-2.60;1.00;;;;;;4953064;29;20745;-51
2021/12/21 04:54:48;;;;;;;15.00;9.90;;;-2.60;1.00;;;;;;4952990;29;20225;-51
2021/12/21 04:57:13;;;;;;;17.77;10.90;;;-2.60;1.00;;;;;;4952421;29;20198;-50
2021/12/21 04:59:39;;;;;;;16.27;10.10;;;-2.60;1.00;;;;;;4952909;29;20197;-51
2021/12/21 05:02:04;;;;;;;20.13;10.50;;;-2.60;1.00;;;;;;4952368;29;20209;-51
2021/12/21 05:04:30;;;;;;;15.77;9.63;;;-2.70;1.00;;;;;;4952884;29;20613;-51
2021/12/21 05:06:55;;;;;;;17.23;9.43;;;-2.70;1.00;;;;;;4952584;29;20201;-52
2021/12/21 05:09:26;;;;;;;17.80;9.70;;;-2.70;1.00;;;;;;4952259;29;20281;-51
2021/12/21 05:11:59;;;;;;;24.23;10.83;;;-2.70;1.00;;;;;;4953306;29;20284;-50
2021/12/21 05:14:25;;;;;;;19.90;10.70;;;-2.70;1.00;;;;;;4935134;29;20465;-51
2021/12/21 05:16:50;;;;;;;23.17;11.33;;;-2.70;1.00;;;;;;4952705;29;20484;-50
2021/12/21 05:19:16;;;;;;;20.57;11.20;;;-2.70;1.00;;;;;;4952760;29;20220;-51
2021/12/21 05:21:41;;;;;;;15.90;10.63;;;-2.70;1.00;;;;;;4951879;28;20285;-51
2021/12/21 05:24:07;;;;;;;20.67;10.73;;;-2.70;1.00;;;;;;4952450;29;20245;-51
2021/12/21 05:26:32;;;;;;;19.27;10.70;;;-2.70;1.00;;;;;;4952074;29;20197;-51
2021/12/21 05:28:58;;;;;;;16.60;9.90;;;-2.70;1.00;;;;;;4952507;29;20282;-51
2021/12/21 05:31:24;;;;;;;22.47;10.30;;;-2.70;1.00;;;;;;4952283;29;20197;-51
2021/12/21 05:33:51;;;;;;;21.73;9.93;;;-2.70;1.00;;;;;;4952524;28;20197;-51
2021/12/21 05:36:20;;;;;;;14.33;9.53;;;-2.70;1.00;;;;;;4952150;29;20185;-51
2021/12/21 05:38:49;;;;;;;15.60;9.63;;;-2.80;1.00;;;;;;4945241;29;20433;-51
2021/12/21 05:41:23;;;;;;;21.17;11.20;;;-2.80;1.00;;;;;;4952548;29;21197;-51
2021/12/21 05:43:50;;;;;;;17.97;11.53;;;-2.80;1.00;;;;;;4952408;29;20424;-51
2021/12/21 05:46:16;;;;;;;19.60;11.10;;;-2.80;1.00;;;;;;4952419;29;21133;-51
2021/12/21 05:48:41;;;;;;;19.80;9.20;;;-2.80;1.00;;;;;;4952608;29;20422;-52
2021/12/21 05:51:07;;;;;;;25.63;9.80;;;-2.80;1.00;;;;;;4952483;28;20703;-51
2021/12/21 05:53:33;;;;;;;21.77;9.80;;;-2.80;1.00;;;;;;4952163;29;20225;-51
2021/12/21 05:55:58;;;;;;;19.13;10.83;;;-2.80;1.00;;;;;;4952363;29;20224;-51
2021/12/21 05:58:24;;;;;;;27.43;11.43;;;-2.80;1.00;;;;;;4952769;29;20300;-51
2021/12/21 06:00:49;;;;;;;22.90;11.40;;;-2.90;1.00;;;;;;4951759;29;20253;-51
2021/12/21 06:03:15;;;;;;;22.43;10.90;;;-2.80;1.00;;;;;;4952050;29;20202;-51
2021/12/21 06:05:41;;;;;;;25.80;11.67;;;-2.80;1.00;;;;;;4952103;29;20193;-52
2021/12/21 06:08:06;;;;;;;24.53;12.00;;;-2.80;1.00;;;;;;4951838;29;20224;-51
2021/12/21 06:10:36;;;;;;;20.73;11.03;;;-2.70;1.00;;;;;;4952321;29;20204;-51
2021/12/21 06:26:13;;;;;;;33.13;11.43;;;-2.80;1.00;;;;;;4952316;29;20481;-50
2021/12/21 06:28:41;;;;;;;27.33;11.10;;;-2.80;1.00;;;;;;4951388;28;20190;-51
2021/12/21 06:31:07;;;;;;;21.27;12.23;;;-2.80;1.00;;;;;;4952634;29;20441;-50
2021/12/21 06:33:33;;;;;;;29.77;11.27;;;-2.80;1.00;;;;;;4952437;28;20459;-51
2021/12/21 06:35:59;;;;;;;22.23;10.77;;;-2.80;1.00;;;;;;4954556;29;20194;-51
2021/12/21 06:38:25;;;;;;;19.70;11.00;;;-2.80;1.00;;;;;;4954940;29;20448;-50
2021/12/21 06:40:52;;;;;;;18.10;10.77;;;-2.80;1.00;;;;;;4955645;29;20221;-51
2021/12/21 06:43:18;;;;;;;40.73;11.70;;;-2.80;1.00;;;;;;4955309;28;20437;-51
2021/12/21 06:53:42;;;;;;;20.50;11.07;;;-2.80;1.00;;;;;;4954041;29;20528;-51
2021/12/21 06:56:10;;;;;;;24.27;12.13;;;-2.80;1.00;;;;;;4954563;29;20946;-51
2021/12/21 06:58:36;;;;;;;24.63;13.30;;;-2.80;1.00;;;;;;4955350;28;20433;-51
2021/12/21 07:01:03;;;;;;;29.20;14.20;;;-2.70;1.00;;;;;;4954978;28;20461;-51
2021/12/21 07:03:29;;;;;;;28.27;13.30;;;-2.70;1.00;;;;;;4954658;29;20438;-51
2021/12/21 07:05:58;;;;;;;29.53;12.93;;;-2.70;1.00;;;;;;4955285;29;20425;-51
2021/12/21 07:08:28;;;;;;;29.73;13.57;;;-2.70;1.00;;;;;;4954522;29;20201;-51
2021/12/21 07:11:07;;;;;;;22.87;13.53;;;-2.70;1.00;;;;;;4954183;29;20528;-51
2021/12/21 07:19:18;;;;;;;29.03;14.17;;;-2.80;1.00;;;;;;4894457;29;20524;-51
2021/12/21 07:21:43;;;;;;;29.33;13.00;;;-2.70;1.00;;;;;;4942070;29;20488;-51
2021/12/21 07:24:09;;;;;;;23.00;13.20;;;-2.70;1.00;;;;;;4954323;29;20190;-50
2021/12/21 07:26:35;;;;;;;28.33;13.13;;;-2.70;1.00;;;;;;4954870;29;20261;-51
2021/12/21 07:29:00;;;;;;;25.13;13.23;;;-2.70;1.00;;;;;;4954995;29;20620;-49
2021/12/21 07:31:26;;;;;;;30.83;13.40;;;-2.70;1.00;;;;;;4955371;29;20186;-49
2021/12/21 07:33:52;;;;;;;27.33;13.83;;;-2.70;1.00;;;;;;4954175;29;20197;-49
2021/12/21 07:36:17;;;;;;;29.07;14.07;;;-2.70;1.00;;;;;;4936732;29;20241;-49
2021/12/21 07:38:43;;;;;;;21.93;12.07;;;-2.70;1.00;;;;;;4954920;28;20197;-49
2021/12/21 07:41:09;;;;;;;28.43;13.97;;;-2.70;1.00;;;;;;4953945;29;20652;-49
2021/12/21 07:43:34;;;;;;;30.07;13.77;;;-2.70;1.00;;;;;;4954111;29;20225;-49
2021/12/21 07:46:00;;;;;;;32.13;14.43;;;-2.70;1.00;;;;;;4953233;28;20280;-49
2021/12/21 07:48:26;;;;;;;30.23;14.87;;;-2.70;1.00;;;;;;4953644;29;20228;-50
2021/12/21 07:50:52;;;;;;;27.77;13.60;;;-2.70;1.00;;;;;;4953402;28;20280;-54
2021/12/21 07:53:19;;;;;;;26.93;14.47;;;-2.70;1.00;;;;;;4953617;29;20201;-49
2021/12/21 07:55:45;;;;;;;19.67;13.07;;;-2.60;1.00;;;;;;4954469;29;20434;-49
2021/12/21 07:58:11;;;;;;;22.17;13.50;;;-2.60;1.00;;;;;;4954408;29;20464;-49
2021/12/21 08:00:37;;;;;;;25.47;14.30;;;-2.60;1.00;;;;;;4954031;29;20469;-49
2021/12/21 08:03:04;;;;;;;24.33;13.60;;;-2.60;1.00;;;;;;4952593;29;20425;-49
2021/12/21 08:05:33;;;;;;;32.77;14.77;;;-2.50;1.00;;;;;;4954056;29;20473;-50
2021/12/21 08:08:13;;;;;;;21.97;13.33;;;-2.50;1.00;;;;;;4955309;28;20429;-50
2021/12/21 08:10:43;;;;;;;25.50;15.57;;;-2.40;1.00;;;;;;4941712;29;20436;-49
2021/12/21 08:13:09;;;;;;;27.67;14.73;;;-2.40;1.00;;;;;;4954519;29;20417;-50
2021/12/21 08:15:35;;;;;;;24.87;14.30;;;-2.30;1.00;;;;;;4954021;29;20441;-49
2021/12/21 08:18:01;;;;;;;30.60;14.10;;;-2.30;1.00;;;;;;4952300;28;20209;-49
2021/12/21 08:20:27;;;;;;;36.20;15.00;;;-2.20;1.00;;;;;;4952525;29;20245;-49
2021/12/21 08:22:55;;;;;;;23.27;14.27;;;-2.20;1.00;;;;;;4954028;28;20184;-49
2021/12/21 08:25:25;;;;;;;29.37;16.60;;;-2.10;1.00;;;;;;4954236;29;20441;-49
2021/12/21 08:28:00;;;;;;;28.03;14.73;;;-2.10;1.00;;;;;;4952431;29;21225;-50
2021/12/21 08:30:27;;;;;;;32.53;16.03;;;-2.10;1.00;;;;;;4946309;29;20449;-49
2021/12/21 08:32:54;;;;;;;27.77;15.40;;;-2.20;1.00;;;;;;4934286;29;20434;-49
2021/12/21 08:35:20;;;;;;;27.43;15.10;;;-2.20;1.00;;;;;;4941281;29;20546;-49
2021/12/21 08:37:51;;;;;;;28.00;14.43;;;-2.20;1.00;;;;;;4953426;29;20438;-52
2021/12/21 08:40:21;;;;;;;28.47;14.43;;;-2.20;1.00;;;;;;4953059;28;20489;-49
2021/12/21 08:42:49;;;;;;;27.87;14.40;;;-2.20;1.00;;;;;;4948384;29;20482;-49
2021/12/21 08:45:15;;;;;;;31.40;15.97;;;-2.20;1.00;;;;;;4948985;29;20428;-50
2021/12/21 08:47:41;;;;;;;26.33;14.80;;;-2.20;1.00;;;;;;4953060;29;20985;-49
2021/12/21 08:50:10;;;;;;;33.40;15.10;;;-2.20;1.00;;;;;;4953026;28;20453;-49
2021/12/21 08:52:36;;;;;;;32.27;16.50;;;-2.20;1.00;;;;;;4953660;28;20248;-50
2021/12/21 08:55:05;;;;;;;34.47;17.77;;;-2.10;1.00;;;;;;4953110;29;20982;-49
2021/12/21 08:57:30;;;;;;;34.77;17.03;;;-2.00;1.00;;;;;;4953595;28;20421;-49
2021/12/21 08:59:56;;;;;;;29.03;15.57;;;-1.90;1.00;;;;;;4951140;29;20477;-49
2021/12/21 09:02:22;;;;;;;31.33;17.13;;;-1.70;1.00;;;;;;4952787;29;20196;-49
2021/12/21 09:04:47;;;;;;;33.30;15.87;;;-1.60;1.00;;;;;;4948832;29;20194;-49
2021/12/21 09:07:13;;;;;;;34.57;20.63;;;-1.50;1.00;;;;;;4952359;29;20206;-49
2021/12/21 09:09:38;;;;;;;31.10;18.50;;;-1.40;1.00;;;;;;4952493;28;20186;-50
2021/12/21 09:12:05;;;;;;;33.43;18.07;;;-1.20;1.00;;;;;;4952596;28;20281;-49
2021/12/21 09:14:32;;;;;;;44.30;19.40;;;-1.00;1.00;;;;;;4952483;29;20289;-49
2021/12/21 09:17:01;;;;;;;33.20;17.63;;;-0.80;1.00;;;;;;4952812;28;20430;-49
2021/12/21 09:19:27;;;;;;;27.30;17.37;;;-0.70;1.00;;;;;;4952537;29;20433;-50
2021/12/21 09:21:54;;;;;;;35.33;18.07;;;-0.50;1.00;;;;;;4952381;29;20468;-49
2021/12/21 09:24:19;;;;;;;32.63;17.17;;;-0.40;1.00;;;;;;4952328;29;20425;-50
2021/12/21 09:26:45;;;;;;;31.30;17.80;;;-0.20;1.00;;;;;;4951652;29;20488;-50
2021/12/21 09:29:11;;;;;;;33.23;16.90;;;-0.10;99.90;;;;;;4935055;29;20190;-49
2021/12/21 09:31:36;;;;;;;33.40;16.40;;;0.00;99.90;;;;;;4951877;29;20206;-50
2021/12/21 09:34:03;;;;;;;41.33;15.97;;;0.10;99.90;;;;;;4952139;29;20556;-49
2021/12/21 09:36:29;;;;;;;30.70;16.53;;;0.20;99.90;;;;;;4951962;29;20197;-49
2021/12/21 09:38:55;;;;;;;32.60;17.03;;;0.30;99.90;;;;;;4952459;29;20500;-49
2021/12/21 09:41:21;;;;;;;30.10;16.40;;;0.40;1.00;;;;;;4951979;29;20795;-49
2021/12/21 09:43:46;;;;;;;31.60;15.87;;;0.50;1.00;;;;;;4951515;29;20441;-49
2021/12/21 09:46:12;;;;;;;28.77;15.37;;;0.60;99.90;;;;;;4951866;29;20515;-49
2021/12/21 09:48:38;;;;;;;30.57;16.47;;;0.60;99.90;;;;;;4934156;29;20723;-49
2021/12/21 09:51:04;;;;;;;32.03;16.23;;;0.70;99.90;;;;;;4951752;29;20571;-50
2021/12/21 09:53:31;;;;;;;27.10;15.40;;;0.70;1.00;;;;;;4952162;29;20547;-50
2021/12/21 09:55:57;;;;;;;32.07;16.07;;;0.80;1.00;;;;;;4951466;29;20476;-50
2021/12/21 09:58:23;;;;;;;33.40;16.73;;;0.90;1.00;;;;;;4935010;29;20433;-49
2021/12/21 10:00:48;;;;;;;25.23;14.70;;;0.90;1.00;;;;;;4952173;29;20531;-52
2021/12/21 10:03:14;;;;;;;24.47;14.80;;;1.00;99.90;;;;;;4952059;29;20193;-50
2021/12/21 10:05:42;;;;;;;27.03;14.53;;;1.00;99.90;;;;;;4951912;29;20196;-49
2021/12/21 10:08:17;;;;;;;28.07;15.27;;;1.10;1.00;;;;;;4952077;28;20422;-50
2021/12/21 10:10:46;;;;;;;28.57;15.40;;;1.20;1.00;;;;;;4955904;29;20472;-50
2021/12/21 10:13:18;;;;;;;31.87;14.57;;;1.30;1.00;;;;;;4955643;28;20988;-50
2021/12/21 10:15:47;;;;;;;27.33;14.93;;;1.30;99.90;;;;;;4955573;29;20425;-50
2021/12/21 10:18:13;;;;;;;31.30;15.20;;;1.40;99.90;;;;;;4955496;29;20764;-50
2021/12/21 10:20:47;;;;;;;33.63;15.13;;;1.40;99.90;;;;;;4955470;29;20828;-49
2021/12/21 10:23:15;;;;;;;27.30;13.77;;;1.50;1.00;;;;;;4955483;29;20424;-50
2021/12/21 10:25:43;;;;;;;23.43;13.77;;;1.60;99.90;;;;;;4955365;29;20410;-50
2021/12/21 10:28:08;;;;;;;21.27;13.00;;;1.60;99.90;;;;;;4955198;29;20935;-50
2021/12/21 10:30:45;;;;;;;28.90;14.73;;;1.70;1.00;;;;;;4955207;29;20465;-50
2021/12/21 10:33:11;;;;;;;24.67;14.80;;;1.80;1.00;;;;;;4955411;29;20218;-50
2021/12/21 10:35:36;;;;;;;26.57;14.60;;;2.20;99.90;;;;;;4955504;29;20453;-50
2021/12/21 10:38:04;;;;;;;26.37;14.27;;;3.00;99.90;;;;;;4955302;29;20696;-50
2021/12/21 10:40:30;;;;;;;20.80;11.63;;;3.70;99.90;;;;;;4955455;29;20851;-49
2021/12/21 10:42:58;;;;;;;29.00;12.10;;;4.30;1.00;;;;;;4955020;29;20460;-50
2021/12/21 10:45:38;;;;;;;20.20;11.93;;;4.90;99.90;;;;;;4955318;29;20197;-50
2021/12/21 10:48:19;;;;;;;27.30;12.07;;;5.30;1.00;;;;;;4955171;29;20425;-51
2021/12/21 10:50:47;;;;;;;21.83;12.00;;;5.40;1.00;;;;;;4955081;29;20718;-50
2021/12/21 10:53:44;;;;;;;19.63;12.23;;;5.80;1.00;;;;;;4955030;29;20429;-50
2021/12/21 10:56:10;;;;;;;14.87;9.83;;;7.60;1.00;;;;;;4953664;28;20437;-50
2021/12/21 10:58:38;;;;;;;21.57;9.40;;;9.70;1.00;;;;;;4954821;29;20452;-50
2021/12/21 11:01:08;;;;;;;20.93;8.60;;;11.50;1.00;;;;;;4954629;29;20249;-50
2021/12/21 11:03:50;;;;;;;20.97;8.90;;;13.10;99.90;;;;;;4954788;29;20919;-50
2021/12/21 11:06:26;;;;;;;19.47;10.10;;;13.90;99.90;;;;;;4954753;29;20417;-51
2021/12/21 11:08:54;;;;;;;18.90;8.73;;;13.90;99.90;;;;;;4954834;28;20856;-50
2021/12/21 11:11:44;;;;;;;12.27;7.87;;;13.20;99.90;;;;;;4954601;28;20421;-51
2021/12/21 11:14:13;;;;;;;14.93;7.43;;;12.40;99.90;;;;;;4954483;28;20422;-51
2021/12/21 11:16:42;;;;;;;15.50;6.97;;;12.00;99.90;;;;;;4954458;28;20425;-51
2021/12/21 11:19:10;;;;;;;18.13;7.40;;;12.00;99.90;;;;;;4954400;28;20417;-51
2021/12/21 11:21:36;;;;;;;14.43;8.30;;;11.80;99.90;;;;;;4953224;29;20968;-51
2021/12/21 11:24:07;;;;;;;15.13;8.20;;;11.20;99.90;;;;;;4954383;28;20448;-51
2021/12/21 11:26:35;;;;;;;12.30;6.80;;;10.60;99.90;;;;;;4953975;28;20448;-51
2021/12/21 11:29:04;;;;;;;14.00;7.10;;;9.80;99.90;;;;;;4954211;29;20735;-51
2021/12/21 11:31:31;;;;;;;12.77;6.70;;;9.30;99.90;;;;;;4954147;29;20927;-51
2021/12/21 11:33:59;;;;;;;11.50;6.03;;;9.30;1.00;;;;;;4954059;29;20417;-51
2021/12/21 11:39:10;;;;;;;11.90;7.27;;;8.90;1.00;;;;;;4954521;29;20468;-52
2021/12/21 11:41:39;;;;;;;14.43;7.20;;;9.00;1.00;;;;;;4953967;29;20513;-51
2021/12/21 11:44:46;;;;;;;8.70;6.37;;;8.80;1.00;;;;;;4954447;28;20896;-51
2021/12/21 11:47:17;;;;;;;16.00;6.60;;;8.60;1.00;;;;;;4924840;28;20453;-51
2021/12/21 11:49:49;;;;;;;13.30;7.23;;;8.40;1.00;;;;;;4953996;29;20437;-51
2021/12/21 11:52:16;;;;;;;15.87;7.00;;;8.00;1.00;;;;;;4954075;28;20480;-51
2021/12/21 11:54:47;;;;;;;15.17;7.00;;;8.20;1.00;;;;;;4953876;28;20460;-51
2021/12/21 11:57:13;;;;;;;10.70;6.17;;;8.70;1.00;;;;;;4953232;29;20464;-51
2021/12/21 11:59:39;;;;;;;10.20;5.93;;;9.30;1.00;;;;;;4953729;29;20417;-51
2021/12/21 12:02:06;;;;;;;14.70;6.40;;;9.80;1.00;;;;;;4953560;28;20471;-51
2021/12/21 12:04:33;;;;;;;15.47;7.40;;;9.80;1.00;;;;;;4953564;29;20186;-51
2021/12/21 12:06:59;;;;;;;14.43;7.03;;;9.90;1.00;;;;;;4953669;28;20520;-52
2021/12/21 12:09:33;;;;;;;10.60;5.63;;;10.20;1.00;;;;;;4953669;28;20508;-53
2021/12/21 12:12:17;;;;;;;12.50;6.80;;;10.50;1.00;;;;;;4953161;29;20205;-53
2021/12/21 12:14:47;;;;;;;14.90;7.40;;;10.30;1.00;;;;;;4943900;29;20480;-53
2021/12/21 12:17:22;;;;;;;11.50;6.40;;;10.00;1.00;;;;;;4953330;28;20469;-53
2021/12/21 12:20:03;;;;;;;10.03;6.13;;;10.20;99.90;;;;;;4953208;29;20528;-53
2021/12/21 12:22:35;;;;;;;9.53;5.53;;;10.30;1.00;;;;;;4953201;29;20434;-53
2021/12/21 12:25:03;;;;;;;15.60;6.40;;;10.50;1.00;;;;;;4953301;28;20469;-54
2021/12/21 12:27:30;;;;;;;15.63;6.47;;;11.20;99.90;;;;;;4935871;29;20429;-53
2021/12/21 12:30:17;;;;;;;10.50;6.10;;;12.10;99.90;;;;;;4953332;28;20830;-53
2021/12/21 12:32:47;;;;;;;11.70;6.13;;;13.70;99.90;;;;;;4935798;29;20500;-53
2021/12/21 12:35:24;;;;;;;11.00;5.83;;;15.40;99.90;;;;;;4953173;29;20417;-53
2021/12/21 12:38:00;;;;;;;9.20;5.50;;;16.70;99.90;;;;;;4953167;29;20427;-53
2021/12/21 12:40:32;;;;;;;7.33;4.80;;;17.10;99.90;;;;;;4952955;29;20915;-53
2021/12/21 12:43:11;;;;;;;6.73;4.50;;;17.80;99.90;;;;;;4953025;28;20520;-52
2021/12/21 12:45:40;;;;;;;9.60;5.30;;;18.60;99.90;;;;;;4953151;29;20447;-53
2021/12/21 12:48:17;;;;;;;14.20;5.70;;;18.70;99.90;;;;;;4952051;28;20460;-53
2021/12/21 12:50:45;;;;;;;11.83;5.17;;;18.10;99.90;;;;;;4952886;29;20479;-53
2021/12/21 12:53:11;;;;;;;8.80;4.77;;;18.40;99.90;;;;;;4952664;29;21061;-53
2021/12/21 12:55:43;;;;;;;8.90;4.23;;;18.70;99.90;;;;;;4952639;28;20441;-53
2021/12/21 12:58:16;;;;;;;6.83;3.90;;;18.90;99.90;;;;;;4950063;28;20469;-52
2021/12/21 13:00:44;;;;;;;7.70;3.83;;;18.30;99.90;;;;;;4934300;29;20598;-53
2021/12/21 13:03:11;;;;;;;6.17;4.13;;;17.80;99.90;;;;;;4952122;29;20426;-53
2021/12/21 13:05:51;;;;;;;9.53;4.10;;;16.90;99.90;;;;;;4953193;28;20465;-53
2021/12/21 13:08:19;;;;;;;6.83;3.90;;;15.10;99.90;;;;;;4952623;29;20421;-54
2021/12/21 13:10:47;;;;;;;8.60;4.20;;;13.80;99.90;;;;;;4952342;29;20427;-52
2021/12/21 13:13:14;;;;;;;7.80;4.27;;;12.70;99.90;;;;;;4952367;29;20440;-53
2021/12/21 13:15:42;;;;;;;6.10;4.10;;;11.80;99.90;;;;;;4952335;29;20524;-53
2021/12/21 13:18:09;;;;;;;12.13;5.47;;;11.40;99.90;;;;;;4952396;29;20429;-53
2021/12/21 13:20:37;;;;;;;11.67;4.73;;;11.80;99.90;;;;;;4952353;28;20815;-53
2021/12/21 13:23:09;;;;;;;7.93;4.43;;;12.40;99.90;;;;;;4951788;28;20433;-53
2021/12/21 13:25:34;;;;;;;14.23;4.27;;;13.30;99.90;;;;;;4952227;29;20428;-53
2021/12/21 13:28:11;;;;;;;7.63;4.70;;;14.10;99.90;;;;;;4952361;29;20907;-53
2021/12/21 13:30:44;;;;;;;9.17;4.87;;;14.50;99.90;;;;;;4952383;28;20193;-53
2021/12/21 13:33:09;;;;;;;19.50;5.03;;;13.70;99.90;;;;;;4952136;29;20413;-53
2021/12/21 13:35:42;;;;;;;10.90;5.03;;;12.20;99.90;;;;;;4952062;28;20521;-52
2021/12/21 13:38:14;;;;;;;5.83;4.20;;;10.50;99.90;;;;;;4935025;29;20205;-53
2021/12/21 13:40:40;;;;;;;11.23;4.57;;;9.20;99.90;;;;;;4952076;29;20465;-52
2021/12/21 13:43:14;;;;;;;10.03;4.67;;;8.40;99.90;;;;;;4935011;28;20981;-53